sensor_id;sensor_type;location;lat;lon;timestamp;temperature;humidity
4505;DHT22;2265;48.794;9.520;2022-12-29T00:00:09;6.00;98.00
4505;DHT22;2265;48.794;9.520;2022-12-29T00:02:37;6.10;98.00
4505;DHT22;2265;48.794;9.520;2022-12-29T00:05:05;6.20;98.00
4505;DHT22;2265;48.794;9.520;2022-12-29T00:07:34;6.10;98.00
4505;DHT22;2265;48.794;9.520;2022-12-29T00:10:01;6.00;98.00
4505;DHT22;2265;48.794;9.520;2022-12-29T00:12:28;6.00;98.00
4505;DHT22;2265;48.794;9.520;2022-12-29T00:15:16;6.00;98.00
4505;DHT22;2265;48.794;9.520;2022-12-29T00:18:00;6.00;98.00
4505;DHT22;2265;48.794;9.520;2022-12-29T00:20:27;6.20;98.00
4505;DHT22;2265;48.794;9.520;2022-12-29T00:23:13;6.10;98.00
4505;DHT22;2265;48.794;9.520;2022-12-29T00:26:12;6.10;98.00
4505;DHT22;2265;48.794;9.520;2022-12-29T00:28:58;6.30;98.00
4505;DHT22;2265;48.794;9.520;2022-12-29T00:31:43;6.30;98.00
4505;DHT22;2265;48.794;9.520;2022-12-29T00:34:28;6.20;98.00
4505;DHT22;2265;48.794;9.520;2022-12-29T00:37:12;6.30;98.00
4505;DHT22;2265;48.794;9.520;2022-12-29T00:39:40;6.40;98.00
4505;DHT22;2265;48.794;9.520;2022-12-29T00:42:25;6.40;98.00
4505;DHT22;2265;48.794;9.520;2022-12-29T00:45:09;6.50;98.00
4505;DHT22;2265;48.794;9.520;2022-12-29T00:47:36;6.60;98.00
4505;DHT22;2265;48.794;9.520;2022-12-29T00:50:04;6.40;98.00
4505;DHT22;2265;48.794;9.520;2022-12-29T00:52:31;6.10;98.00
4505;DHT22;2265;48.794;9.520;2022-12-29T00:54:59;6.00;98.00
4505;DHT22;2265;48.794;9.520;2022-12-29T00:57:26;6.00;98.00
4505;DHT22;2265;48.794;9.520;2022-12-29T00:59:54;6.00;98.00
4505;DHT22;2265;48.794;9.520;2022-12-29T01:02:22;6.00;98.00
4505;DHT22;2265;48.794;9.520;2022-12-29T01:04:49;6.00;98.00
4505;DHT22;2265;48.794;9.520;2022-12-29T01:07:16;6.10;98.00
4505;DHT22;2265;48.794;9.520;2022-12-29T01:09:43;6.20;98.00
4505;DHT22;2265;48.794;9.520;2022-12-29T01:12:29;6.20;98.00
4505;DHT22;2265;48.794;9.520;2022-12-29T01:15:11;6.30;98.00
4505;DHT22;2265;48.794;9.520;2022-12-29T01:17:39;6.40;98.00
4505;DHT22;2265;48.794;9.520;2022-12-29T01:20:07;6.60;98.00
4505;DHT22;2265;48.794;9.520;2022-12-29T01:22:34;6.40;98.00
4505;DHT22;2265;48.794;9.520;2022-12-29T01:25:01;6.50;98.00
4505;DHT22;2265;48.794;9.520;2022-12-29T01:27:29;6.50;98.00
4505;DHT22;2265;48.794;9.520;2022-12-29T01:29:56;6.30;98.00
4505;DHT22;2265;48.794;9.520;2022-12-29T01:32:23;6.40;98.00
4505;DHT22;2265;48.794;9.520;2022-12-29T01:34:50;6.40;98.00
4505;DHT22;2265;48.794;9.520;2022-12-29T01:37:17;6.30;98.00
4505;DHT22;2265;48.794;9.520;2022-12-29T01:39:44;6.40;98.00
4505;DHT22;2265;48.794;9.520;2022-12-29T01:42:15;6.50;98.00
4505;DHT22;2265;48.794;9.520;2022-12-29T01:44:50;6.50;98.00
4505;DHT22;2265;48.794;9.520;2022-12-29T01:47:23;6.50;98.00
4505;DHT22;2265;48.794;9.520;2022-12-29T01:49:54;6.60;98.00
4505;DHT22;2265;48.794;9.520;2022-12-29T01:52:23;6.60;98.00
4505;DHT22;2265;48.794;9.520;2022-12-29T01:54:53;6.70;98.00
4505;DHT22;2265;48.794;9.520;2022-12-29T01:57:24;6.60;98.00
4505;DHT22;2265;48.794;9.520;2022-12-29T01:59:56;6.70;98.00
4505;DHT22;2265;48.794;9.520;2022-12-29T02:02:25;6.70;98.00
4505;DHT22;2265;48.794;9.520;2022-12-29T02:04:53;6.60;98.00
4505;DHT22;2265;48.794;9.520;2022-12-29T02:07:23;6.60;98.00
4505;DHT22;2265;48.794;9.520;2022-12-29T02:09:57;6.60;98.00
4505;DHT22;2265;48.794;9.520;2022-12-29T02:12:26;6.50;98.00
4505;DHT22;2265;48.794;9.520;2022-12-29T02:14:57;6.60;98.00
4505;DHT22;2265;48.794;9.520;2022-12-29T02:17:38;6.60;98.00
4505;DHT22;2265;48.794;9.520;2022-12-29T02:20:35;6.60;98.00
4505;DHT22;2265;48.794;9.520;2022-12-29T02:26:27;6.80;98.00
4505;DHT22;2265;48.794;9.520;2022-12-29T02:32:04;6.90;98.00
4505;DHT22;2265;48.794;9.520;2022-12-29T02:34:42;7.00;98.00
4505;DHT22;2265;48.794;9.520;2022-12-29T02:37:19;7.10;98.00
4505;DHT22;2265;48.794;9.520;2022-12-29T02:39:55;7.40;98.00
4505;DHT22;2265;48.794;9.520;2022-12-29T02:42:29;7.70;98.00
4505;DHT22;2265;48.794;9.520;2022-12-29T02:45:03;7.70;98.00
4505;DHT22;2265;48.794;9.520;2022-12-29T02:47:36;7.80;98.00
4505;DHT22;2265;48.794;9.520;2022-12-29T02:50:09;7.90;98.00
4505;DHT22;2265;48.794;9.520;2022-12-29T02:52:44;7.90;98.00
4505;DHT22;2265;48.794;9.520;2022-12-29T02:55:16;8.00;98.00
4505;DHT22;2265;48.794;9.520;2022-12-29T02:57:42;8.00;98.00
4505;DHT22;2265;48.794;9.520;2022-12-29T03:00:13;8.10;98.00
4505;DHT22;2265;48.794;9.520;2022-12-29T03:03:04;8.40;98.00
4505;DHT22;2265;48.794;9.520;2022-12-29T03:06:03;8.50;98.00
4505;DHT22;2265;48.794;9.520;2022-12-29T03:08:38;8.80;98.00
4505;DHT22;2265;48.794;9.520;2022-12-29T03:11:08;9.10;98.00
4505;DHT22;2265;48.794;9.520;2022-12-29T03:13:59;9.40;98.00
4505;DHT22;2265;48.794;9.520;2022-12-29T03:16:48;9.90;98.00
4505;DHT22;2265;48.794;9.520;2022-12-29T03:19:21;10.30;98.00
4505;DHT22;2265;48.794;9.520;2022-12-29T03:21:53;10.40;98.00
4505;DHT22;2265;48.794;9.520;2022-12-29T03:24:48;10.50;98.00
4505;DHT22;2265;48.794;9.520;2022-12-29T03:27:19;10.60;98.00
4505;DHT22;2265;48.794;9.520;2022-12-29T03:29:51;10.60;98.00
4505;DHT22;2265;48.794;9.520;2022-12-29T03:32:22;10.70;98.00
4505;DHT22;2265;48.794;9.520;2022-12-29T03:34:53;10.90;98.00
4505;DHT22;2265;48.794;9.520;2022-12-29T03:37:25;11.00;98.00
4505;DHT22;2265;48.794;9.520;2022-12-29T03:39:53;11.00;98.00
4505;DHT22;2265;48.794;9.520;2022-12-29T03:42:23;11.00;98.00
4505;DHT22;2265;48.794;9.520;2022-12-29T03:44:54;11.20;98.00
4505;DHT22;2265;48.794;9.520;2022-12-29T03:47:23;11.20;98.00
4505;DHT22;2265;48.794;9.520;2022-12-29T03:49:52;11.20;98.00
4505;DHT22;2265;48.794;9.520;2022-12-29T03:52:19;11.30;98.00
4505;DHT22;2265;48.794;9.520;2022-12-29T03:54:46;11.30;98.00
4505;DHT22;2265;48.794;9.520;2022-12-29T03:57:13;11.30;98.00
4505;DHT22;2265;48.794;9.520;2022-12-29T03:59:41;11.40;98.00
4505;DHT22;2265;48.794;9.520;2022-12-29T04:02:08;11.50;98.00
4505;DHT22;2265;48.794;9.520;2022-12-29T04:04:35;11.40;98.00
4505;DHT22;2265;48.794;9.520;2022-12-29T04:07:04;11.50;98.00
4505;DHT22;2265;48.794;9.520;2022-12-29T04:09:31;11.50;98.00
4505;DHT22;2265;48.794;9.520;2022-12-29T04:11:58;11.50;98.00
4505;DHT22;2265;48.794;9.520;2022-12-29T04:14:25;11.60;98.00
4505;DHT22;2265;48.794;9.520;2022-12-29T04:16:55;11.70;98.00
4505;DHT22;2265;48.794;9.520;2022-12-29T04:19:22;11.70;98.00
4505;DHT22;2265;48.794;9.520;2022-12-29T04:21:49;11.70;98.00
4505;DHT22;2265;48.794;9.520;2022-12-29T04:24:17;11.60;98.00
4505;DHT22;2265;48.794;9.520;2022-12-29T04:26:45;11.50;98.00
4505;DHT22;2265;48.794;9.520;2022-12-29T04:29:12;11.50;98.00
4505;DHT22;2265;48.794;9.520;2022-12-29T04:31:39;11.40;98.00
4505;DHT22;2265;48.794;9.520;2022-12-29T04:34:06;11.40;98.00
4505;DHT22;2265;48.794;9.520;2022-12-29T04:36:33;11.40;98.00
4505;DHT22;2265;48.794;9.520;2022-12-29T04:39:00;11.40;98.00
4505;DHT22;2265;48.794;9.520;2022-12-29T04:41:29;11.40;98.00
4505;DHT22;2265;48.794;9.520;2022-12-29T04:43:57;11.50;98.00
4505;DHT22;2265;48.794;9.520;2022-12-29T04:46:24;11.50;98.00
4505;DHT22;2265;48.794;9.520;2022-12-29T04:48:51;11.50;98.00
4505;DHT22;2265;48.794;9.520;2022-12-29T04:51:18;11.50;98.00
4505;DHT22;2265;48.794;9.520;2022-12-29T04:53:45;11.60;98.00
4505;DHT22;2265;48.794;9.520;2022-12-29T04:56:13;11.50;98.00
4505;DHT22;2265;48.794;9.520;2022-12-29T04:58:41;11.40;98.00
4505;DHT22;2265;48.794;9.520;2022-12-29T05:01:08;11.40;98.00
4505;DHT22;2265;48.794;9.520;2022-12-29T05:03:35;11.40;98.00
4505;DHT22;2265;48.794;9.520;2022-12-29T05:06:02;11.30;98.00
4505;DHT22;2265;48.794;9.520;2022-12-29T05:08:29;11.30;98.00
4505;DHT22;2265;48.794;9.520;2022-12-29T05:10:56;11.20;98.00
4505;DHT22;2265;48.794;9.520;2022-12-29T05:13:24;11.10;98.00
4505;DHT22;2265;48.794;9.520;2022-12-29T05:15:53;11.10;98.00
4505;DHT22;2265;48.794;9.520;2022-12-29T05:18:20;11.10;98.00
4505;DHT22;2265;48.794;9.520;2022-12-29T05:20:47;11.00;98.00
4505;DHT22;2265;48.794;9.520;2022-12-29T05:23:14;11.00;98.00
4505;DHT22;2265;48.794;9.520;2022-12-29T05:25:43;11.00;98.00
4505;DHT22;2265;48.794;9.520;2022-12-29T05:28:12;10.90;98.00
4505;DHT22;2265;48.794;9.520;2022-12-29T05:30:39;10.90;98.00
4505;DHT22;2265;48.794;9.520;2022-12-29T05:33:07;10.90;98.00
4505;DHT22;2265;48.794;9.520;2022-12-29T05:35:37;10.90;98.00
4505;DHT22;2265;48.794;9.520;2022-12-29T05:38:04;10.80;98.00
4505;DHT22;2265;48.794;9.520;2022-12-29T05:40:34;10.80;98.00
4505;DHT22;2265;48.794;9.520;2022-12-29T05:43:01;10.80;98.00
4505;DHT22;2265;48.794;9.520;2022-12-29T05:45:28;10.90;98.00
4505;DHT22;2265;48.794;9.520;2022-12-29T05:47:55;11.00;98.00
4505;DHT22;2265;48.794;9.520;2022-12-29T05:50:24;11.00;98.00
4505;DHT22;2265;48.794;9.520;2022-12-29T05:52:51;10.90;98.00
4505;DHT22;2265;48.794;9.520;2022-12-29T05:55:18;11.00;98.00
4505;DHT22;2265;48.794;9.520;2022-12-29T05:57:45;11.00;98.00
4505;DHT22;2265;48.794;9.520;2022-12-29T06:00:13;11.00;98.00
4505;DHT22;2265;48.794;9.520;2022-12-29T06:02:41;10.90;98.00
4505;DHT22;2265;48.794;9.520;2022-12-29T06:05:09;10.90;98.00
4505;DHT22;2265;48.794;9.520;2022-12-29T06:07:37;10.90;98.00
4505;DHT22;2265;48.794;9.520;2022-12-29T06:10:05;10.80;98.00
4505;DHT22;2265;48.794;9.520;2022-12-29T06:12:33;10.90;98.00
4505;DHT22;2265;48.794;9.520;2022-12-29T06:15:00;10.90;98.00
4505;DHT22;2265;48.794;9.520;2022-12-29T06:17:30;10.90;98.00
4505;DHT22;2265;48.794;9.520;2022-12-29T06:19:57;11.00;98.00
4505;DHT22;2265;48.794;9.520;2022-12-29T06:22:24;11.00;98.00
4505;DHT22;2265;48.794;9.520;2022-12-29T06:24:52;11.00;98.00
4505;DHT22;2265;48.794;9.520;2022-12-29T06:27:20;11.00;98.00
4505;DHT22;2265;48.794;9.520;2022-12-29T06:29:47;11.10;98.00
4505;DHT22;2265;48.794;9.520;2022-12-29T06:32:15;11.10;98.00
4505;DHT22;2265;48.794;9.520;2022-12-29T06:34:42;11.10;98.00
4505;DHT22;2265;48.794;9.520;2022-12-29T06:37:10;11.10;98.00
4505;DHT22;2265;48.794;9.520;2022-12-29T06:39:37;11.10;98.00
4505;DHT22;2265;48.794;9.520;2022-12-29T06:42:06;11.00;98.00
4505;DHT22;2265;48.794;9.520;2022-12-29T06:44:33;11.00;98.00
4505;DHT22;2265;48.794;9.520;2022-12-29T06:47:00;10.90;98.00
4505;DHT22;2265;48.794;9.520;2022-12-29T06:49:27;10.90;98.00
4505;DHT22;2265;48.794;9.520;2022-12-29T06:51:54;10.90;98.00
4505;DHT22;2265;48.794;9.520;2022-12-29T06:54:23;10.90;98.00
4505;DHT22;2265;48.794;9.520;2022-12-29T06:56:51;10.90;98.00
4505;DHT22;2265;48.794;9.520;2022-12-29T06:59:19;10.90;98.00
4505;DHT22;2265;48.794;9.520;2022-12-29T07:01:46;10.90;98.00
4505;DHT22;2265;48.794;9.520;2022-12-29T07:04:13;10.80;98.00
4505;DHT22;2265;48.794;9.520;2022-12-29T07:06:41;10.80;98.00
4505;DHT22;2265;48.794;9.520;2022-12-29T07:09:08;10.80;98.00
4505;DHT22;2265;48.794;9.520;2022-12-29T07:11:36;10.80;98.00
4505;DHT22;2265;48.794;9.520;2022-12-29T07:14:03;10.80;98.00
4505;DHT22;2265;48.794;9.520;2022-12-29T07:16:33;10.80;98.00
4505;DHT22;2265;48.794;9.520;2022-12-29T07:19:00;10.70;98.00
4505;DHT22;2265;48.794;9.520;2022-12-29T07:21:27;10.70;98.00
4505;DHT22;2265;48.794;9.520;2022-12-29T07:23:54;10.60;98.00
4505;DHT22;2265;48.794;9.520;2022-12-29T07:26:21;10.60;98.00
4505;DHT22;2265;48.794;9.520;2022-12-29T07:28:49;10.50;98.00
4505;DHT22;2265;48.794;9.520;2022-12-29T07:31:17;10.50;98.00
4505;DHT22;2265;48.794;9.520;2022-12-29T07:33:47;10.50;98.00
4505;DHT22;2265;48.794;9.520;2022-12-29T07:36:15;10.50;98.00
4505;DHT22;2265;48.794;9.520;2022-12-29T07:38:42;10.40;98.00
4505;DHT22;2265;48.794;9.520;2022-12-29T07:41:12;10.40;98.00
4505;DHT22;2265;48.794;9.520;2022-12-29T07:43:40;10.40;98.00
4505;DHT22;2265;48.794;9.520;2022-12-29T07:46:07;10.30;98.00
4505;DHT22;2265;48.794;9.520;2022-12-29T07:48:35;10.30;98.00
4505;DHT22;2265;48.794;9.520;2022-12-29T07:51:03;10.30;98.00
4505;DHT22;2265;48.794;9.520;2022-12-29T07:53:31;10.20;98.00
4505;DHT22;2265;48.794;9.520;2022-12-29T07:55:58;10.10;98.00
4505;DHT22;2265;48.794;9.520;2022-12-29T07:58:25;10.10;98.00
4505;DHT22;2265;48.794;9.520;2022-12-29T08:00:53;9.90;98.00
4505;DHT22;2265;48.794;9.520;2022-12-29T08:03:23;9.90;98.00
4505;DHT22;2265;48.794;9.520;2022-12-29T08:05:51;9.90;98.00
4505;DHT22;2265;48.794;9.520;2022-12-29T08:08:20;9.90;98.00
4505;DHT22;2265;48.794;9.520;2022-12-29T08:10:47;9.80;98.00
4505;DHT22;2265;48.794;9.520;2022-12-29T08:13:14;9.80;98.00
4505;DHT22;2265;48.794;9.520;2022-12-29T08:15:41;9.80;98.00
4505;DHT22;2265;48.794;9.520;2022-12-29T08:18:09;9.80;98.00
4505;DHT22;2265;48.794;9.520;2022-12-29T08:20:36;9.90;98.00
4505;DHT22;2265;48.794;9.520;2022-12-29T08:23:04;10.00;98.00
4505;DHT22;2265;48.794;9.520;2022-12-29T08:25:33;10.00;98.00
4505;DHT22;2265;48.794;9.520;2022-12-29T08:28:00;10.00;98.00
4505;DHT22;2265;48.794;9.520;2022-12-29T08:30:27;10.00;98.00
4505;DHT22;2265;48.794;9.520;2022-12-29T08:32:54;10.20;98.00
4505;DHT22;2265;48.794;9.520;2022-12-29T08:35:22;10.20;98.00
4505;DHT22;2265;48.794;9.520;2022-12-29T08:37:49;10.30;98.00
4505;DHT22;2265;48.794;9.520;2022-12-29T08:40:16;10.30;98.00
4505;DHT22;2265;48.794;9.520;2022-12-29T08:42:45;10.40;98.00
4505;DHT22;2265;48.794;9.520;2022-12-29T08:45:12;10.50;98.00
4505;DHT22;2265;48.794;9.520;2022-12-29T08:47:39;10.50;98.00
4505;DHT22;2265;48.794;9.520;2022-12-29T08:50:07;10.50;98.00
4505;DHT22;2265;48.794;9.520;2022-12-29T08:52:34;10.60;98.00
4505;DHT22;2265;48.794;9.520;2022-12-29T08:55:01;10.70;98.00
4505;DHT22;2265;48.794;9.520;2022-12-29T08:57:28;10.70;98.00
4505;DHT22;2265;48.794;9.520;2022-12-29T08:59:57;10.80;98.00
4505;DHT22;2265;48.794;9.520;2022-12-29T09:02:24;10.90;98.00
4505;DHT22;2265;48.794;9.520;2022-12-29T09:04:51;10.90;98.00
4505;DHT22;2265;48.794;9.520;2022-12-29T09:07:18;11.00;98.00
4505;DHT22;2265;48.794;9.520;2022-12-29T09:09:45;11.00;98.00
4505;DHT22;2265;48.794;9.520;2022-12-29T09:12:12;11.00;98.00
4505;DHT22;2265;48.794;9.520;2022-12-29T09:14:41;11.00;98.00
4505;DHT22;2265;48.794;9.520;2022-12-29T09:17:12;11.10;98.00
4505;DHT22;2265;48.794;9.520;2022-12-29T09:19:57;11.10;98.00
4505;DHT22;2265;48.794;9.520;2022-12-29T09:22:27;11.00;98.00
4505;DHT22;2265;48.794;9.520;2022-12-29T09:24:55;11.00;98.00
4505;DHT22;2265;48.794;9.520;2022-12-29T09:27:22;11.10;98.00
4505;DHT22;2265;48.794;9.520;2022-12-29T09:29:49;11.10;98.00
4505;DHT22;2265;48.794;9.520;2022-12-29T09:32:18;11.10;98.00
4505;DHT22;2265;48.794;9.520;2022-12-29T09:34:45;11.10;98.00
4505;DHT22;2265;48.794;9.520;2022-12-29T09:37:12;11.10;98.00
4505;DHT22;2265;48.794;9.520;2022-12-29T09:39:39;11.20;98.00
4505;DHT22;2265;48.794;9.520;2022-12-29T09:42:10;11.20;98.00
4505;DHT22;2265;48.794;9.520;2022-12-29T09:44:50;11.30;98.00
4505;DHT22;2265;48.794;9.520;2022-12-29T09:47:21;11.30;98.00
4505;DHT22;2265;48.794;9.520;2022-12-29T09:49:54;11.40;98.00
4505;DHT22;2265;48.794;9.520;2022-12-29T09:52:23;11.50;98.00
4505;DHT22;2265;48.794;9.520;2022-12-29T09:54:53;11.90;98.00
4505;DHT22;2265;48.794;9.520;2022-12-29T09:57:25;12.50;98.00
4505;DHT22;2265;48.794;9.520;2022-12-29T09:59:56;12.70;98.00
4505;DHT22;2265;48.794;9.520;2022-12-29T10:02:31;12.70;98.00
4505;DHT22;2265;48.794;9.520;2022-12-29T10:04:59;12.60;98.00
4505;DHT22;2265;48.794;9.520;2022-12-29T10:07:36;12.60;98.00
4505;DHT22;2265;48.794;9.520;2022-12-29T10:10:21;12.60;98.00
4505;DHT22;2265;48.794;9.520;2022-12-29T10:13:00;12.60;98.00
4505;DHT22;2265;48.794;9.520;2022-12-29T10:15:40;12.70;98.00
4505;DHT22;2265;48.794;9.520;2022-12-29T10:18:26;12.70;98.00
4505;DHT22;2265;48.794;9.520;2022-12-29T10:20:58;12.80;98.00
4505;DHT22;2265;48.794;9.520;2022-12-29T10:23:31;12.90;98.00
4505;DHT22;2265;48.794;9.520;2022-12-29T10:26:01;12.90;98.00
4505;DHT22;2265;48.794;9.520;2022-12-29T10:28:36;13.00;98.00
4505;DHT22;2265;48.794;9.520;2022-12-29T10:31:08;12.90;98.00
4505;DHT22;2265;48.794;9.520;2022-12-29T10:33:41;12.90;98.00
4505;DHT22;2265;48.794;9.520;2022-12-29T10:36:15;12.90;98.00
4505;DHT22;2265;48.794;9.520;2022-12-29T10:38:48;12.90;98.00
4505;DHT22;2265;48.794;9.520;2022-12-29T10:41:23;12.90;98.00
4505;DHT22;2265;48.794;9.520;2022-12-29T10:43:52;12.90;98.00
4505;DHT22;2265;48.794;9.520;2022-12-29T10:46:23;12.90;98.00
4505;DHT22;2265;48.794;9.520;2022-12-29T10:48:52;13.00;98.00
4505;DHT22;2265;48.794;9.520;2022-12-29T10:51:22;13.00;98.00
4505;DHT22;2265;48.794;9.520;2022-12-29T10:53:53;13.10;98.00
4505;DHT22;2265;48.794;9.520;2022-12-29T10:56:28;13.10;98.00
4505;DHT22;2265;48.794;9.520;2022-12-29T10:58:59;13.20;98.00
4505;DHT22;2265;48.794;9.520;2022-12-29T11:01:38;13.20;98.00
4505;DHT22;2265;48.794;9.520;2022-12-29T11:04:33;13.30;98.00
4505;DHT22;2265;48.794;9.520;2022-12-29T11:07:03;13.60;98.00
4505;DHT22;2265;48.794;9.520;2022-12-29T11:09:34;13.80;98.00
4505;DHT22;2265;48.794;9.520;2022-12-29T11:12:18;14.00;98.00
4505;DHT22;2265;48.794;9.520;2022-12-29T11:14:45;14.10;98.00
4505;DHT22;2265;48.794;9.520;2022-12-29T11:17:15;14.20;98.00
4505;DHT22;2265;48.794;9.520;2022-12-29T11:19:47;14.30;98.00
4505;DHT22;2265;48.794;9.520;2022-12-29T11:22:20;14.50;98.00
4505;DHT22;2265;48.794;9.520;2022-12-29T11:24:49;14.40;98.00
4505;DHT22;2265;48.794;9.520;2022-12-29T11:27:18;14.30;98.00
4505;DHT22;2265;48.794;9.520;2022-12-29T11:29:46;14.20;98.00
4505;DHT22;2265;48.794;9.520;2022-12-29T11:32:19;14.20;98.00
4505;DHT22;2265;48.794;9.520;2022-12-29T11:34:48;14.10;98.00
4505;DHT22;2265;48.794;9.520;2022-12-29T11:37:18;14.10;98.00
4505;DHT22;2265;48.794;9.520;2022-12-29T11:39:51;14.10;98.00
4505;DHT22;2265;48.794;9.520;2022-12-29T11:42:21;14.10;98.00
4505;DHT22;2265;48.794;9.520;2022-12-29T11:44:50;14.10;98.00
4505;DHT22;2265;48.794;9.520;2022-12-29T11:47:27;14.10;98.00
4505;DHT22;2265;48.794;9.520;2022-12-29T11:49:58;14.00;98.00
4505;DHT22;2265;48.794;9.520;2022-12-29T11:52:31;14.00;98.00
4505;DHT22;2265;48.794;9.520;2022-12-29T11:55:03;13.80;98.00
4505;DHT22;2265;48.794;9.520;2022-12-29T11:57:34;13.70;98.00
4505;DHT22;2265;48.794;9.520;2022-12-29T12:00:14;13.70;98.00
4505;DHT22;2265;48.794;9.520;2022-12-29T12:05:41;13.50;98.00
4505;DHT22;2265;48.794;9.520;2022-12-29T12:08:14;13.50;98.00
4505;DHT22;2265;48.794;9.520;2022-12-29T12:10:46;13.50;98.00
4505;DHT22;2265;48.794;9.520;2022-12-29T12:13:19;13.60;98.00
4505;DHT22;2265;48.794;9.520;2022-12-29T12:15:51;13.60;98.00
4505;DHT22;2265;48.794;9.520;2022-12-29T12:18:24;13.70;98.00
4505;DHT22;2265;48.794;9.520;2022-12-29T12:20:58;13.70;98.00
4505;DHT22;2265;48.794;9.520;2022-12-29T12:23:38;13.60;98.00
4505;DHT22;2265;48.794;9.520;2022-12-29T12:26:11;13.60;98.00
4505;DHT22;2265;48.794;9.520;2022-12-29T12:28:46;13.50;98.00
4505;DHT22;2265;48.794;9.520;2022-12-29T12:31:28;13.50;98.00
4505;DHT22;2265;48.794;9.520;2022-12-29T12:34:04;13.40;98.00
4505;DHT22;2265;48.794;9.520;2022-12-29T12:36:51;13.40;98.00
4505;DHT22;2265;48.794;9.520;2022-12-29T12:39:26;13.40;98.00
4505;DHT22;2265;48.794;9.520;2022-12-29T12:42:03;13.40;98.00
4505;DHT22;2265;48.794;9.520;2022-12-29T12:44:37;13.30;98.00
4505;DHT22;2265;48.794;9.520;2022-12-29T12:47:18;13.40;98.00
4505;DHT22;2265;48.794;9.520;2022-12-29T12:50:02;13.40;98.00
4505;DHT22;2265;48.794;9.520;2022-12-29T12:52:45;13.30;98.00
4505;DHT22;2265;48.794;9.520;2022-12-29T12:55:35;13.30;98.00
4505;DHT22;2265;48.794;9.520;2022-12-29T12:58:09;13.20;98.00
4505;DHT22;2265;48.794;9.520;2022-12-29T13:00:45;13.10;98.00
4505;DHT22;2265;48.794;9.520;2022-12-29T13:03:22;13.00;98.00
4505;DHT22;2265;48.794;9.520;2022-12-29T13:06:04;13.00;98.00
4505;DHT22;2265;48.794;9.520;2022-12-29T13:08:56;13.00;98.00
4505;DHT22;2265;48.794;9.520;2022-12-29T13:11:32;13.10;98.00
4505;DHT22;2265;48.794;9.520;2022-12-29T13:14:12;13.10;98.00
4505;DHT22;2265;48.794;9.520;2022-12-29T13:16:46;13.20;98.00
4505;DHT22;2265;48.794;9.520;2022-12-29T13:19:20;13.20;98.00
4505;DHT22;2265;48.794;9.520;2022-12-29T13:22:07;13.20;98.00
4505;DHT22;2265;48.794;9.520;2022-12-29T13:24:47;13.20;98.00
4505;DHT22;2265;48.794;9.520;2022-12-29T13:27:22;13.20;98.00
4505;DHT22;2265;48.794;9.520;2022-12-29T13:29:56;13.20;98.00
4505;DHT22;2265;48.794;9.520;2022-12-29T13:32:35;13.20;98.00
4505;DHT22;2265;48.794;9.520;2022-12-29T13:35:25;13.20;98.00
4505;DHT22;2265;48.794;9.520;2022-12-29T13:38:00;13.20;98.00
4505;DHT22;2265;48.794;9.520;2022-12-29T13:40:32;13.10;98.00
4505;DHT22;2265;48.794;9.520;2022-12-29T13:43:02;13.10;98.00
4505;DHT22;2265;48.794;9.520;2022-12-29T13:45:31;13.10;98.00
4505;DHT22;2265;48.794;9.520;2022-12-29T13:48:04;13.00;98.00
4505;DHT22;2265;48.794;9.520;2022-12-29T13:50:36;13.00;98.00
4505;DHT22;2265;48.794;9.520;2022-12-29T13:53:10;13.00;98.00
4505;DHT22;2265;48.794;9.520;2022-12-29T13:55:44;13.00;98.00
4505;DHT22;2265;48.794;9.520;2022-12-29T13:58:17;13.00;98.00
4505;DHT22;2265;48.794;9.520;2022-12-29T14:00:53;13.00;98.00
4505;DHT22;2265;48.794;9.520;2022-12-29T14:06:19;13.10;98.00
4505;DHT22;2265;48.794;9.520;2022-12-29T14:08:48;13.10;98.00
4505;DHT22;2265;48.794;9.520;2022-12-29T14:11:22;13.10;98.00
4505;DHT22;2265;48.794;9.520;2022-12-29T14:13:51;13.00;98.00
4505;DHT22;2265;48.794;9.520;2022-12-29T14:16:30;12.90;98.00
4505;DHT22;2265;48.794;9.520;2022-12-29T14:19:15;13.00;98.00
4505;DHT22;2265;48.794;9.520;2022-12-29T14:21:51;13.00;98.00
4505;DHT22;2265;48.794;9.520;2022-12-29T14:24:40;13.00;98.00
4505;DHT22;2265;48.794;9.520;2022-12-29T14:27:51;13.20;98.00
4505;DHT22;2265;48.794;9.520;2022-12-29T14:33:28;13.30;98.00
4505;DHT22;2265;48.794;9.520;2022-12-29T14:35:57;13.20;98.00
4505;DHT22;2265;48.794;9.520;2022-12-29T14:38:28;13.20;98.00
4505;DHT22;2265;48.794;9.520;2022-12-29T14:41:16;13.10;98.00
4505;DHT22;2265;48.794;9.520;2022-12-29T14:43:54;13.00;98.00
4505;DHT22;2265;48.794;9.520;2022-12-29T14:46:22;13.00;98.00
4505;DHT22;2265;48.794;9.520;2022-12-29T14:48:55;13.10;98.00
4505;DHT22;2265;48.794;9.520;2022-12-29T14:51:32;13.10;98.00
4505;DHT22;2265;48.794;9.520;2022-12-29T14:57:03;13.10;98.00
4505;DHT22;2265;48.794;9.520;2022-12-29T14:59:34;13.00;98.00
4505;DHT22;2265;48.794;9.520;2022-12-29T15:02:04;13.00;98.00
4505;DHT22;2265;48.794;9.520;2022-12-29T15:04:39;12.90;98.00
4505;DHT22;2265;48.794;9.520;2022-12-29T15:07:09;12.90;98.00
4505;DHT22;2265;48.794;9.520;2022-12-29T15:09:38;12.80;98.00
4505;DHT22;2265;48.794;9.520;2022-12-29T15:12:18;12.80;98.00
4505;DHT22;2265;48.794;9.520;2022-12-29T15:14:55;12.70;98.00
4505;DHT22;2265;48.794;9.520;2022-12-29T15:17:25;12.60;98.00
4505;DHT22;2265;48.794;9.520;2022-12-29T15:19:52;12.50;98.00
4505;DHT22;2265;48.794;9.520;2022-12-29T15:22:20;12.50;98.00
4505;DHT22;2265;48.794;9.520;2022-12-29T15:24:50;12.40;98.00
4505;DHT22;2265;48.794;9.520;2022-12-29T15:27:20;12.30;98.00
4505;DHT22;2265;48.794;9.520;2022-12-29T15:29:58;12.40;98.00
4505;DHT22;2265;48.794;9.520;2022-12-29T15:32:29;12.20;98.00
4505;DHT22;2265;48.794;9.520;2022-12-29T15:34:58;12.30;98.00
4505;DHT22;2265;48.794;9.520;2022-12-29T15:37:27;12.30;98.00
4505;DHT22;2265;48.794;9.520;2022-12-29T15:39:55;12.10;98.00
4505;DHT22;2265;48.794;9.520;2022-12-29T15:42:47;12.10;98.00
4505;DHT22;2265;48.794;9.520;2022-12-29T15:45:18;12.20;98.00
4505;DHT22;2265;48.794;9.520;2022-12-29T15:47:46;12.10;98.00
4505;DHT22;2265;48.794;9.520;2022-12-29T15:50:21;12.20;98.00
4505;DHT22;2265;48.794;9.520;2022-12-29T15:52:49;12.10;98.00
4505;DHT22;2265;48.794;9.520;2022-12-29T15:55:20;12.10;98.00
4505;DHT22;2265;48.794;9.520;2022-12-29T15:57:48;12.20;98.00
4505;DHT22;2265;48.794;9.520;2022-12-29T16:00:24;12.10;98.00
4505;DHT22;2265;48.794;9.520;2022-12-29T16:02:53;12.10;98.00
4505;DHT22;2265;48.794;9.520;2022-12-29T16:05:20;12.10;98.00
4505;DHT22;2265;48.794;9.520;2022-12-29T16:07:55;12.10;98.00
4505;DHT22;2265;48.794;9.520;2022-12-29T16:10:26;12.20;98.00
4505;DHT22;2265;48.794;9.520;2022-12-29T16:13:01;12.20;98.00
4505;DHT22;2265;48.794;9.520;2022-12-29T16:15:31;12.20;98.00
4505;DHT22;2265;48.794;9.520;2022-12-29T16:17:58;12.20;98.00
4505;DHT22;2265;48.794;9.520;2022-12-29T16:20:34;12.40;98.00
4505;DHT22;2265;48.794;9.520;2022-12-29T16:23:03;12.30;98.00
4505;DHT22;2265;48.794;9.520;2022-12-29T16:25:32;12.10;98.00
4505;DHT22;2265;48.794;9.520;2022-12-29T16:28:01;11.90;98.00
4505;DHT22;2265;48.794;9.520;2022-12-29T16:30:32;11.70;98.00
4505;DHT22;2265;48.794;9.520;2022-12-29T16:33:01;11.50;98.00
4505;DHT22;2265;48.794;9.520;2022-12-29T16:35:38;11.40;98.00
4505;DHT22;2265;48.794;9.520;2022-12-29T16:38:14;11.30;98.00
4505;DHT22;2265;48.794;9.520;2022-12-29T16:40:50;11.20;98.00
4505;DHT22;2265;48.794;9.520;2022-12-29T16:43:23;11.10;98.00
4505;DHT22;2265;48.794;9.520;2022-12-29T16:46:17;11.00;98.00
4505;DHT22;2265;48.794;9.520;2022-12-29T16:48:51;11.00;98.00
4505;DHT22;2265;48.794;9.520;2022-12-29T16:51:23;10.90;98.00